Time;durP1;ratioP1;P1;durP2;ratioP2;P2;SDS_P1;SDS_P2;PMS_P1;PMS_P2;Temp;Humidity;BMP_temperature;BMP_pressure;BME280_temperature;BME280_humidity;BME280_pressure;Samples;Min_cycle;Max_cycle;Signal;HPM_P1;HPM_P2
2023/06/08 00:01:58;;;;;;;19.83;15.00;;;17.40;1.00;;;;;;5005051;28;20585;-80
2023/06/08 00:04:45;;;;;;;21.53;15.93;;;17.40;1.00;;;;;;5015045;28;20405;-76
2023/06/08 00:07:34;;;;;;;16.53;14.13;;;17.40;1.00;;;;;;5015782;28;20578;-76
2023/06/08 00:10:10;;;;;;;28.83;15.23;;;17.40;1.00;;;;;;5005051;28;20468;-76
2023/06/08 00:12:45;;;;;;;22.50;15.17;;;17.30;1.00;;;;;;5016422;28;20439;-76
2023/06/08 00:15:17;;;;;;;20.30;15.50;;;17.20;1.00;;;;;;5005732;28;20564;-76
2023/06/08 00:17:58;;;;;;;20.30;15.63;;;17.20;1.00;;;;;;5011461;28;20409;-76
2023/06/08 00:20:46;;;;;;;22.70;16.30;;;17.10;1.00;;;;;;5016596;28;20404;-76
2023/06/08 00:23:22;;;;;;;26.30;16.00;;;17.10;1.00;;;;;;5012057;28;20414;-76
2023/06/08 00:25:58;;;;;;;35.63;15.63;;;17.00;1.00;;;;;;5014885;28;20892;-76
2023/06/08 00:28:24;;;;;;;26.93;16.53;;;16.90;1.00;;;;;;5004697;28;20916;-76
2023/06/08 00:31:27;;;;;;;20.47;15.80;;;16.90;1.00;;;;;;5015422;28;20410;-76
2023/06/08 00:33:57;;;;;;;26.63;17.00;;;16.80;1.00;;;;;;5016426;28;20182;-76
2023/06/08 00:36:57;;;;;;;22.87;16.90;;;16.80;1.00;;;;;;5014378;28;20477;-76
2023/06/08 00:39:45;;;;;;;22.40;16.67;;;16.80;1.00;;;;;;5016020;28;20475;-76
2023/06/08 00:42:27;;;;;;;21.70;15.73;;;16.70;1.00;;;;;;5013014;28;20380;-76
2023/06/08 00:45:04;;;;;;;22.07;15.63;;;16.70;1.00;;;;;;5015484;28;20904;-77
2023/06/08 00:47:46;;;;;;;20.03;16.10;;;16.60;1.00;;;;;;4998596;28;20464;-76
2023/06/08 00:50:41;;;;;;;18.50;15.83;;;16.60;1.00;;;;;;5014621;28;20416;-77
2023/06/08 00:53:16;;;;;;;29.10;16.87;;;16.50;1.00;;;;;;5015343;28;20436;-76
2023/06/08 00:55:50;;;;;;;18.83;15.07;;;16.50;1.00;;;;;;5016018;28;20486;-76
2023/06/08 00:58:22;;;;;;;21.03;14.73;;;16.50;1.00;;;;;;5014934;28;20431;-76
2023/06/08 01:00:49;;;;;;;24.30;16.23;;;16.40;1.00;;;;;;5015272;28;20467;-77
2023/06/08 01:03:45;;;;;;;21.73;15.03;;;16.40;1.00;;;;;;5015322;28;20491;-76
2023/06/08 01:06:16;;;;;;;23.07;15.73;;;16.40;1.00;;;;;;5010215;28;20429;-80
2023/06/08 01:09:22;;;;;;;21.30;15.47;;;16.30;1.00;;;;;;5004646;28;20391;-81
2023/06/08 01:18:47;;;;;;;20.63;15.30;;;16.20;1.00;;;;;;5005356;28;21003;-80
2023/06/08 01:25:15;;;;;;;21.47;15.57;;;16.10;1.00;;;;;;5012647;28;20443;-80
2023/06/08 01:28:34;;;;;;;21.23;16.00;;;16.00;1.00;;;;;;5008015;28;20429;-80
2023/06/08 01:34:51;;;;;;;26.33;14.97;;;16.00;1.00;;;;;;5010734;28;20441;-76
2023/06/08 01:37:29;;;;;;;21.80;15.37;;;15.90;1.00;;;;;;5014817;28;20400;-76
2023/06/08 01:40:46;;;;;;;29.73;16.40;;;15.90;1.00;;;;;;5014315;28;20399;-76
2023/06/08 01:43:25;;;;;;;44.03;15.10;;;15.90;1.00;;;;;;4985334;28;20415;-77
2023/06/08 01:46:22;;;;;;;21.20;14.93;;;15.90;1.00;;;;;;4993091;28;20449;-76
2023/06/08 01:48:50;;;;;;;21.20;15.37;;;15.90;1.00;;;;;;4992345;28;20460;-76
2023/06/08 01:58:11;;;;;;;28.60;15.87;;;15.90;1.00;;;;;;4989784;28;20421;-80
2023/06/08 02:04:39;;;;;;;24.80;15.77;;;15.80;1.00;;;;;;4984654;28;20446;-80
2023/06/08 02:07:16;;;;;;;24.77;15.87;;;15.80;1.00;;;;;;4992062;28;20508;-76
2023/06/08 02:09:58;;;;;;;39.43;15.20;;;15.80;1.00;;;;;;4976832;28;20420;-76
2023/06/08 02:13:09;;;;;;;26.07;15.33;;;15.80;1.00;;;;;;4992636;28;20413;-76
2023/06/08 02:15:40;;;;;;;20.07;15.17;;;15.70;1.00;;;;;;4979678;28;20472;-76
2023/06/08 02:18:05;;;;;;;24.40;15.40;;;15.70;1.00;;;;;;4999137;28;20524;-76
2023/06/08 02:20:34;;;;;;;22.20;15.63;;;15.60;1.00;;;;;;5014623;28;21074;-77
2023/06/08 02:23:16;;;;;;;22.73;16.20;;;15.60;1.00;;;;;;5013908;28;20256;-76
2023/06/08 02:25:49;;;;;;;25.60;15.90;;;15.70;1.00;;;;;;5012366;28;20418;-77
2023/06/08 02:28:15;;;;;;;26.17;16.77;;;15.60;1.00;;;;;;5000711;28;20398;-76
2023/06/08 02:30:46;;;;;;;26.63;15.97;;;15.60;1.00;;;;;;5014084;28;20416;-76
2023/06/08 02:33:28;;;;;;;31.40;16.57;;;15.60;1.00;;;;;;5013981;28;20390;-76
2023/06/08 02:36:34;;;;;;;29.97;16.20;;;15.60;1.00;;;;;;5012601;28;20529;-77
2023/06/08 02:39:03;;;;;;;23.93;16.43;;;15.60;1.00;;;;;;5006108;28;20739;-76
2023/06/08 02:41:40;;;;;;;24.77;16.07;;;15.60;1.00;;;;;;4996411;28;20441;-76
2023/06/08 02:50:51;;;;;;;19.80;15.60;;;15.50;1.00;;;;;;5011495;28;20479;-89
2023/06/08 02:57:34;;;;;;;23.23;15.30;;;15.50;1.00;;;;;;5002844;28;20875;-90
2023/06/08 03:03:23;;;;;;;28.70;16.43;;;15.50;1.00;;;;;;5004672;28;20768;-89
2023/06/08 03:09:15;;;;;;;19.40;16.00;;;15.50;1.00;;;;;;5018246;28;20426;-82
2023/06/08 03:15:04;;;;;;;22.70;16.03;;;15.40;1.00;;;;;;5019746;28;20519;-82
2023/06/08 03:17:42;;;;;;;22.97;15.83;;;15.40;1.00;;;;;;5001117;28;20403;-82
2023/06/08 03:27:16;;;;;;;19.57;15.20;;;15.40;1.00;;;;;;5020042;28;20415;-89
2023/06/08 03:33:22;;;;;;;35.03;16.20;;;15.40;1.00;;;;;;5001078;28;20962;-90
2023/06/08 03:36:33;;;;;;;25.43;15.00;;;15.30;1.00;;;;;;4994949;28;20486;-82
2023/06/08 03:39:15;;;;;;;18.90;14.53;;;15.30;1.00;;;;;;5016291;28;20432;-83
2023/06/08 03:42:15;;;;;;;24.13;16.17;;;15.30;1.00;;;;;;5005814;28;20436;-82
2023/06/08 03:48:03;;;;;;;22.23;15.60;;;15.30;1.00;;;;;;5019540;28;20394;-82
2023/06/08 03:53:51;;;;;;;24.03;15.63;;;15.30;1.00;;;;;;5018029;28;20902;-90
2023/06/08 03:56:28;;;;;;;28.30;15.27;;;15.30;1.00;;;;;;5002926;28;20482;-90
2023/06/08 03:59:10;;;;;;;27.87;15.30;;;15.30;1.00;;;;;;5015219;28;20398;-90
2023/06/08 04:02:29;;;;;;;19.43;15.70;;;15.40;1.00;;;;;;4995750;28;20427;-90
2023/06/08 04:08:22;;;;;;;33.50;15.70;;;15.40;1.00;;;;;;5018856;28;20955;-82
2023/06/08 04:11:15;;;;;;;19.60;15.63;;;15.50;1.00;;;;;;5001775;28;20394;-82
2023/06/08 04:13:41;;;;;;;23.40;15.87;;;15.50;1.00;;;;;;5001522;28;20399;-82
2023/06/08 04:16:45;;;;;;;19.37;15.57;;;15.60;1.00;;;;;;5001451;28;20562;-82
2023/06/08 04:19:28;;;;;;;37.27;16.40;;;15.60;1.00;;;;;;5013754;28;20200;-82
2023/06/08 04:22:04;;;;;;;26.30;15.73;;;15.70;1.00;;;;;;5016067;28;20391;-82
2023/06/08 04:25:15;;;;;;;21.80;15.50;;;15.70;1.00;;;;;;5015903;28;20485;-82
2023/06/08 04:27:41;;;;;;;20.03;15.17;;;15.80;1.00;;;;;;5011082;28;20488;-82
2023/06/08 04:30:16;;;;;;;21.70;15.70;;;15.80;1.00;;;;;;4998410;28;20518;-82
2023/06/08 04:33:33;;;;;;;21.23;15.27;;;15.90;1.00;;;;;;5014406;28;20283;-82
2023/06/08 04:36:46;;;;;;;32.53;15.50;;;15.90;1.00;;;;;;5016199;28;20433;-82
2023/06/08 04:39:16;;;;;;;26.90;15.60;;;16.00;1.00;;;;;;5009399;28;20388;-81
2023/06/08 04:41:58;;;;;;;31.60;15.93;;;16.10;1.00;;;;;;5011547;28;20766;-82
2023/06/08 04:45:18;;;;;;;22.30;16.00;;;16.20;1.00;;;;;;5013443;28;20943;-82
2023/06/08 04:48:17;;;;;;;20.90;14.77;;;16.40;1.00;;;;;;5014216;28;20400;-82
2023/06/08 04:54:04;;;;;;;20.63;13.30;;;16.80;1.00;;;;;;5014799;28;20405;-82
2023/06/08 04:56:43;;;;;;;23.70;15.17;;;17.00;1.00;;;;;;5011230;28;20422;-82
2023/06/08 04:59:46;;;;;;;19.30;14.50;;;17.10;1.00;;;;;;5015577;28;20294;-82
2023/06/08 05:02:45;;;;;;;17.90;14.77;;;17.30;1.00;;;;;;5015327;28;20488;-82
2023/06/08 05:12:45;;;;;;;14.27;11.83;;;18.00;1.00;;;;;;5011766;28;20476;-82
2023/06/08 05:15:45;;;;;;;16.60;11.57;;;18.40;1.00;;;;;;5001249;28;20457;-82
2023/06/08 05:18:46;;;;;;;20.93;11.37;;;18.90;1.00;;;;;;5011844;28;20443;-82
2023/06/08 05:24:46;;;;;;;26.53;9.77;;;19.70;1.00;;;;;;5013915;28;20490;-87
2023/06/08 05:28:03;;;;;;;11.53;9.20;;;20.00;1.00;;;;;;4990285;28;20474;-87
2023/06/08 05:30:46;;;;;;;9.73;8.73;;;20.30;1.00;;;;;;4998525;28;20434;-87
2023/06/08 05:36:57;;;;;;;11.60;7.83;;;20.60;1.00;;;;;;5012871;28;21027;-86
2023/06/08 05:39:51;;;;;;;12.03;7.70;;;20.80;1.00;;;;;;4992307;28;20438;-87
2023/06/08 05:45:58;;;;;;;9.93;8.30;;;21.00;1.00;;;;;;5004103;28;20460;-87
2023/06/08 05:55:08;;;;;;;17.83;9.00;;;21.10;1.00;;;;;;5012410;28;20589;-84
2023/06/08 05:58:16;;;;;;;9.30;8.40;;;21.10;1.00;;;;;;5010030;28;20478;-83
2023/06/08 06:00:59;;;;;;;14.23;9.40;;;21.10;1.00;;;;;;4996517;28;20422;-83
2023/06/08 06:04:03;;;;;;;12.40;8.20;;;21.00;1.00;;;;;;5013476;28;20435;-83
2023/06/08 06:07:15;;;;;;;20.23;9.60;;;20.90;1.00;;;;;;4996419;28;20445;-83
2023/06/08 06:13:32;;;;;;;17.60;11.70;;;20.50;1.00;;;;;;5013103;28;20405;-88
2023/06/08 06:16:45;;;;;;;36.53;12.70;;;20.40;1.00;;;;;;4997041;28;20508;-87
2023/06/08 06:19:45;;;;;;;29.00;12.60;;;20.20;1.00;;;;;;4991052;28;20429;-88
2023/06/08 06:22:16;;;;;;;28.27;11.93;;;20.00;1.00;;;;;;4988171;28;20426;-88
2023/06/08 06:24:46;;;;;;;26.83;12.60;;;19.80;1.00;;;;;;4992451;28;20465;-83
2023/06/08 06:27:45;;;;;;;23.40;12.90;;;19.80;1.00;;;;;;4994931;28;20437;-83
2023/06/08 06:33:46;;;;;;;28.03;13.20;;;19.50;1.00;;;;;;5011851;28;20897;-83
2023/06/08 06:36:45;;;;;;;29.90;14.53;;;19.40;1.00;;;;;;5013895;28;20514;-83
2023/06/08 06:39:45;;;;;;;24.30;13.47;;;19.40;1.00;;;;;;4992339;28;20425;-84
2023/06/08 06:42:16;;;;;;;21.83;13.60;;;19.40;1.00;;;;;;5013239;28;20424;-84
2023/06/08 06:44:46;;;;;;;26.03;13.90;;;19.50;1.00;;;;;;4992047;28;20425;-83
2023/06/08 06:47:16;;;;;;;25.27;13.60;;;19.60;1.00;;;;;;4994893;28;20440;-83
2023/06/08 06:50:15;;;;;;;17.20;13.30;;;19.80;1.00;;;;;;4995968;28;20823;-84
2023/06/08 06:52:46;;;;;;;24.60;12.67;;;20.00;1.00;;;;;;4995766;28;20921;-83
2023/06/08 06:55:45;;;;;;;23.70;13.70;;;20.30;1.00;;;;;;4995225;28;20461;-82
2023/06/08 06:58:16;;;;;;;27.53;13.20;;;20.50;1.00;;;;;;5009061;28;20847;-83
2023/06/08 07:01:15;;;;;;;15.53;12.00;;;20.90;1.00;;;;;;4995953;28;20922;-83
2023/06/08 07:04:15;;;;;;;29.90;11.67;;;21.10;1.00;;;;;;5013320;28;20392;-83
2023/06/08 07:10:16;;;;;;;17.03;11.80;;;21.30;1.00;;;;;;5010216;28;20980;-90
2023/06/08 07:12:46;;;;;;;17.10;10.87;;;21.30;1.00;;;;;;4996598;28;20426;-91
2023/06/08 07:15:17;;;;;;;17.53;12.63;;;21.30;1.00;;;;;;4996719;28;21049;-90
2023/06/08 07:18:16;;;;;;;18.50;12.17;;;21.40;1.00;;;;;;4993451;28;20961;-90
2023/06/08 07:27:57;;;;;;;16.80;11.10;;;21.60;1.00;;;;;;5013581;28;20423;-90
2023/06/08 07:30:51;;;;;;;13.23;11.13;;;22.00;1.00;;;;;;4996475;28;20422;-90
2023/06/08 07:33:46;;;;;;;15.27;11.20;;;22.20;1.00;;;;;;4996469;28;20457;-91
2023/06/08 07:36:22;;;;;;;14.50;10.17;;;22.60;1.00;;;;;;4996473;28;20556;-90
2023/06/08 07:39:15;;;;;;;15.87;9.50;;;23.00;1.00;;;;;;4984066;28;20778;-90
2023/06/08 07:42:15;;;;;;;13.47;9.83;;;23.60;1.00;;;;;;4996459;28;20922;-88
2023/06/08 07:44:46;;;;;;;10.63;9.53;;;24.10;1.00;;;;;;4989272;28;20437;-89
2023/06/08 07:47:17;;;;;;;13.77;9.20;;;24.40;1.00;;;;;;4988175;28;20431;-90
2023/06/08 07:50:15;;;;;;;12.13;8.90;;;24.70;1.00;;;;;;4996108;28;20481;-90
2023/06/08 07:52:46;;;;;;;13.00;9.37;;;24.80;1.00;;;;;;4996726;28;20425;-90
2023/06/08 07:55:16;;;;;;;16.73;9.60;;;24.80;1.00;;;;;;4994661;28;20462;-90
2023/06/08 07:57:48;;;;;;;11.40;9.00;;;24.90;1.00;;;;;;4999560;28;20949;-90
2023/06/08 08:00:16;;;;;;;10.13;8.97;;;25.00;1.00;;;;;;5010430;28;20421;-90
2023/06/08 08:03:21;;;;;;;10.57;9.50;;;25.10;1.00;;;;;;4994844;28;20801;-88
2023/06/08 08:12:31;;;;;;;9.80;8.23;;;25.20;1.00;;;;;;5015220;28;20428;-89
2023/06/08 08:18:18;;;;;;;9.80;7.90;;;24.90;1.00;;;;;;5015855;28;20188;-90
2023/06/08 08:20:58;;;;;;;13.07;8.67;;;24.80;1.00;;;;;;5009806;28;20504;-90
2023/06/08 08:26:46;;;;;;;11.17;8.67;;;24.60;1.00;;;;;;5013065;28;20433;-90
2023/06/08 08:29:33;;;;;;;8.90;8.00;;;24.60;1.00;;;;;;5014616;28;20437;-90
2023/06/08 08:32:23;;;;;;;9.20;8.00;;;24.50;1.00;;;;;;4980500;28;20181;-90
2023/06/08 08:35:10;;;;;;;8.87;7.90;;;24.40;1.00;;;;;;4980311;28;20529;-91
2023/06/08 08:41:20;;;;;;;12.50;8.13;;;24.20;1.00;;;;;;5016923;28;20400;-87
2023/06/08 08:47:10;;;;;;;10.70;8.00;;;24.20;1.00;;;;;;4997132;28;20406;-87
2023/06/08 08:53:20;;;;;;;26.87;9.17;;;;;;;;;;5003538;28;20467;-87
2023/06/08 08:56:22;;;;;;;10.33;8.37;;;24.40;1.00;;;;;;4997821;28;20462;-86
2023/06/08 08:59:00;;;;;;;11.50;8.03;;;24.40;1.00;;;;;;5001105;28;20428;-86
2023/06/08 09:02:15;;;;;;;11.27;8.50;;;24.50;1.00;;;;;;4998529;28;20454;-84
2023/06/08 09:05:16;;;;;;;40.30;20.17;;;24.60;1.00;;;;;;4998835;28;20429;-86
2023/06/08 09:14:27;;;;;;;20.13;11.00;;;24.80;1.00;;;;;;5011442;28;20459;-79
2023/06/08 09:17:37;;;;;;;9.33;7.60;;;24.90;1.00;;;;;;5008701;28;20483;-78
2023/06/08 09:20:29;;;;;;;30.70;14.30;;;25.00;1.00;;;;;;5009865;28;20429;-78
2023/06/08 09:27:10;;;;;;;11.43;8.40;;;25.20;1.00;;;;;;5015259;28;20438;-86
2023/06/08 09:32:58;;;;;;;16.60;10.40;;;25.30;1.00;;;;;;5015417;28;20462;-86
2023/06/08 09:36:16;;;;;;;11.30;8.33;;;25.40;1.00;;;;;;4998022;28;20798;-86
2023/06/08 09:39:21;;;;;;;14.13;8.00;;;25.60;1.00;;;;;;4997118;28;21015;-86
2023/06/08 09:45:12;;;;;;;8.70;7.73;;;25.80;1.00;;;;;;5006919;28;20407;-86
2023/06/08 09:51:07;;;;;;;9.40;7.80;;;26.20;1.00;;;;;;5012601;28;20425;-86
2023/06/08 09:53:59;;;;;;;13.43;7.43;;;26.20;1.00;;;;;;5015023;28;20803;-86
2023/06/08 09:56:32;;;;;;;12.03;7.90;;;26.30;1.00;;;;;;4993731;28;20823;-81
2023/06/08 09:59:07;;;;;;;12.33;6.60;;;26.30;1.00;;;;;;4992136;28;20443;-79
2023/06/08 10:01:53;;;;;;;10.33;7.37;;;26.30;1.00;;;;;;4995246;28;20867;-80
2023/06/08 10:04:41;;;;;;;11.63;7.47;;;26.30;1.00;;;;;;5002511;28;20474;-79
2023/06/08 10:07:24;;;;;;;10.47;7.57;;;26.20;1.00;;;;;;5003246;28;20479;-79
2023/06/08 10:13:17;;;;;;;8.30;7.50;;;26.20;1.00;;;;;;5014513;28;20383;-85
2023/06/08 10:16:04;;;;;;;8.53;6.70;;;26.50;1.00;;;;;;4996959;28;20477;-85
2023/06/08 10:18:46;;;;;;;10.83;7.17;;;26.70;1.00;;;;;;5009295;28;20430;-85
2023/06/08 10:24:58;;;;;;;8.53;7.63;;;26.80;1.00;;;;;;5012972;28;20919;-85
2023/06/08 10:31:24;;;;;;;7.73;6.97;;;27.00;1.00;;;;;;5012516;28;20780;-84
2023/06/08 10:40:47;;;;;;;11.30;7.07;;;27.50;1.00;;;;;;5014585;28;20410;-93
2023/06/08 10:50:40;;;;;;;9.70;7.10;;;27.90;1.00;;;;;;5007395;28;20391;-87
2023/06/08 10:56:29;;;;;;;7.90;7.00;;;28.20;1.00;;;;;;5010287;28;20815;-92
2023/06/08 10:59:16;;;;;;;7.80;7.00;;;28.20;1.00;;;;;;4997097;28;20423;-90
2023/06/08 11:05:09;;;;;;;7.70;7.00;;;28.40;1.00;;;;;;4997915;28;20447;-90
2023/06/08 11:08:16;;;;;;;9.87;6.63;;;28.50;1.00;;;;;;4984966;28;20558;-89
2023/06/08 11:11:27;;;;;;;7.53;6.73;;;28.50;1.00;;;;;;4995999;28;20422;-89
2023/06/08 11:13:53;;;;;;;8.50;6.77;;;28.60;1.00;;;;;;4996952;28;20799;-93
2023/06/08 11:16:20;;;;;;;7.00;6.40;;;28.70;1.00;;;;;;4996952;28;20549;-91
2023/06/08 11:19:15;;;;;;;6.77;6.07;;;28.80;1.00;;;;;;4993140;28;20268;-91
2023/06/08 11:21:58;;;;;;;7.37;6.67;;;28.90;1.00;;;;;;4990411;28;20437;-89
2023/06/08 11:27:46;;;;;;;7.20;6.10;;;29.10;1.00;;;;;;5013591;28;21136;-92
2023/06/08 11:31:04;;;;;;;6.20;5.70;;;29.20;1.00;;;;;;4995398;28;20442;-92
2023/06/08 11:33:34;;;;;;;7.63;6.30;;;29.40;1.00;;;;;;5000779;28;20426;-92
2023/06/08 11:39:22;;;;;;;6.87;6.20;;;29.50;1.00;;;;;;5015975;28;20470;-92
2023/06/08 11:42:16;;;;;;;9.00;6.10;;;29.70;1.00;;;;;;5000198;28;20974;-92
2023/06/08 11:51:26;;;;;;;6.40;5.60;;;30.50;1.00;;;;;;5014195;28;20403;-87
2023/06/08 11:53:58;;;;;;;6.10;5.60;;;30.70;1.00;;;;;;5000523;28;20416;-87
2023/06/08 11:59:47;;;;;;;5.73;5.33;;;30.50;1.00;;;;;;5016578;28;20432;-93
2023/06/08 12:09:16;;;;;;;6.30;5.70;;;30.70;1.00;;;;;;5011510;28;20506;-93
2023/06/08 12:15:03;;;;;;;7.27;5.60;;;30.80;1.00;;;;;;5016922;28;20507;-92
2023/06/08 12:18:00;;;;;;;7.97;5.80;;;30.70;1.00;;;;;;4999474;28;20428;-92
2023/06/08 12:20:30;;;;;;;14.07;5.67;;;30.70;1.00;;;;;;5007045;28;20176;-93
2023/06/08 12:27:10;;;;;;;6.50;5.90;;;30.30;1.00;;;;;;5016769;28;20474;-92
2023/06/08 12:32:58;;;;;;;7.53;5.37;;;30.80;1.00;;;;;;5016072;28;20493;-92
2023/06/08 12:35:24;;;;;;;5.33;4.83;;;30.90;1.00;;;;;;4999739;28;20505;-93
2023/06/08 12:41:18;;;;;;;7.60;4.57;;;31.40;1.00;;;;;;5015918;28;20396;-89
2023/06/08 12:44:16;;;;;;;9.40;5.10;;;31.80;1.00;;;;;;5010230;28;20440;-91
2023/06/08 12:53:52;;;;;;;4.70;4.30;;;33.20;1.00;;;;;;5015841;28;20406;-91
2023/06/08 12:56:29;;;;;;;5.40;4.27;;;33.30;1.00;;;;;;4979392;28;20478;-91
2023/06/08 13:02:17;;;;;;;5.67;5.10;;;33.10;1.00;;;;;;5016411;28;20407;-91
2023/06/08 13:08:08;;;;;;;7.43;5.93;;;31.80;1.00;;;;;;5016232;28;20179;-89
2023/06/08 13:10:46;;;;;;;10.00;7.10;;;31.20;1.00;;;;;;4998879;28;20938;-89
2023/06/08 13:13:33;;;;;;;9.43;6.83;;;30.50;1.00;;;;;;4995441;28;20429;-89
2023/06/08 13:16:01;;;;;;;8.20;7.40;;;29.90;1.00;;;;;;4979302;28;20599;-90
2023/06/08 13:18:58;;;;;;;12.30;8.47;;;29.30;1.00;;;;;;4980783;28;20443;-88
2023/06/08 13:24:47;;;;;;;14.30;9.47;;;28.00;1.00;;;;;;5012842;28;20390;-92
2023/06/08 13:30:35;;;;;;;12.40;9.67;;;27.10;1.00;;;;;;5006718;28;20441;-91
2023/06/08 13:36:28;;;;;;;21.33;10.20;;;26.20;1.00;;;;;;5015646;28;20569;-92
2023/06/08 13:39:16;;;;;;;13.67;11.10;;;25.90;1.00;;;;;;5014582;28;20640;-92
2023/06/08 13:45:05;;;;;;;9.77;8.77;;;26.00;1.00;;;;;;5012117;28;20842;-91
2023/06/08 13:50:55;;;;;;;10.23;8.40;;;26.50;1.00;;;;;;5015563;28;20855;-92
2023/06/08 13:53:34;;;;;;;9.20;8.30;;;27.00;1.00;;;;;;4994802;28;20447;-91
2023/06/08 13:56:17;;;;;;;10.90;8.07;;;27.60;1.00;;;;;;4998668;28;20457;-91
2023/06/08 13:59:22;;;;;;;9.57;7.57;;;28.00;1.00;;;;;;4991394;28;20443;-91
2023/06/08 14:02:10;;;;;;;9.50;6.70;;;28.40;1.00;;;;;;4993126;28;20415;-92
2023/06/08 14:04:52;;;;;;;16.00;6.80;;;29.10;1.00;;;;;;4997871;28;20430;-92
2023/06/08 14:07:34;;;;;;;8.53;6.47;;;29.50;1.00;;;;;;5007105;28;20509;-90
2023/06/08 14:10:16;;;;;;;6.97;6.30;;;29.90;1.00;;;;;;5000368;28;20443;-90
2023/06/08 14:13:16;;;;;;;8.57;5.83;;;30.30;1.00;;;;;;4995678;28;20471;-93
2023/06/08 14:15:52;;;;;;;7.50;5.47;;;30.90;1.00;;;;;;5001993;28;20837;-92
2023/06/08 14:19:10;;;;;;;7.27;5.70;;;31.70;1.00;;;;;;5014727;28;20486;-93
2023/06/08 14:24:57;;;;;;;7.77;5.73;;;31.90;1.00;;;;;;4995497;28;20380;-92
2023/06/08 14:30:47;;;;;;;6.03;5.53;;;32.40;1.00;;;;;;5005674;28;20188;-88
2023/06/08 14:33:12;;;;;;;6.00;5.40;;;32.60;1.00;;;;;;4996922;28;20507;-88
2023/06/08 14:39:16;;;;;;;6.23;4.97;;;33.70;1.00;;;;;;5002523;28;20235;-89
2023/06/08 14:42:34;;;;;;;5.30;4.80;;;34.30;1.00;;;;;;4991502;28;20421;-89
2023/06/08 14:48:28;;;;;;;7.13;4.40;;;34.70;1.00;;;;;;5005559;28;20411;-88
2023/06/08 14:54:29;;;;;;;9.43;5.07;;;33.20;1.00;;;;;;5011154;28;20431;-91
2023/06/08 14:57:46;;;;;;;6.87;5.47;;;31.80;1.00;;;;;;4995211;28;20448;-86
2023/06/08 15:00:16;;;;;;;8.43;5.77;;;30.80;1.00;;;;;;4995048;28;20851;-85
2023/06/08 15:03:16;;;;;;;6.00;5.50;;;29.70;1.00;;;;;;4996571;28;20431;-85
2023/06/08 15:09:03;;;;;;;12.30;7.33;;;27.80;1.00;;;;;;5013481;28;20454;-85
2023/06/08 15:11:46;;;;;;;10.13;6.30;;;27.00;1.00;;;;;;4996068;28;20857;-85
2023/06/08 15:14:12;;;;;;;10.30;7.10;;;26.30;1.00;;;;;;4996300;28;20624;-83
2023/06/08 15:17:16;;;;;;;14.90;7.33;;;25.80;1.00;;;;;;4996987;28;20549;-84
2023/06/08 15:20:16;;;;;;;12.00;6.90;;;25.40;1.00;;;;;;5011623;28;20175;-85
2023/06/08 15:26:46;;;;;;;8.13;7.13;;;24.40;1.00;;;;;;5013651;28;20443;-86
2023/06/08 15:29:29;;;;;;;10.77;7.00;;;24.10;1.00;;;;;;4996104;28;20497;-86
2023/06/08 15:32:10;;;;;;;13.17;7.57;;;23.80;1.00;;;;;;4984149;28;20437;-95
2023/06/08 15:35:16;;;;;;;15.37;8.17;;;23.50;1.00;;;;;;4995665;28;20493;-94
2023/06/08 15:41:46;;;;;;;9.90;7.23;;;23.20;1.00;;;;;;5009235;28;20560;-94
2023/06/08 15:47:46;;;;;;;11.03;7.77;;;22.80;1.00;;;;;;5006182;28;20474;-88
2023/06/08 15:50:28;;;;;;;8.50;7.20;;;22.70;1.00;;;;;;4993163;28;20464;-87
2023/06/08 15:53:29;;;;;;;10.47;6.07;;;22.60;1.00;;;;;;4995988;28;20476;-87
2023/06/08 15:56:16;;;;;;;11.77;7.40;;;22.60;1.00;;;;;;4996324;28;20461;-94
2023/06/08 15:59:07;;;;;;;12.40;7.10;;;22.60;1.00;;;;;;4993385;28;20413;-91
2023/06/08 16:01:46;;;;;;;10.43;6.90;;;22.60;1.00;;;;;;4994670;28;20440;-91
2023/06/08 16:04:46;;;;;;;12.20;7.30;;;22.50;1.00;;;;;;4985469;28;20420;-92
2023/06/08 16:07:46;;;;;;;9.50;8.20;;;22.50;1.00;;;;;;4996387;28;20448;-90
2023/06/08 16:10:51;;;;;;;12.00;8.53;;;22.40;1.00;;;;;;4992271;28;20399;-93
2023/06/08 16:13:33;;;;;;;13.70;8.23;;;22.40;1.00;;;;;;4977454;28;20432;-91
2023/06/08 16:16:00;;;;;;;12.00;7.90;;;22.40;1.00;;;;;;4984995;28;20615;-84
2023/06/08 16:25:16;;;;;;;7.83;6.80;;;22.60;1.00;;;;;;5018844;28;20905;-86
2023/06/08 16:28:16;;;;;;;11.90;6.70;;;22.60;1.00;;;;;;4993624;28;20410;-89
2023/06/08 16:34:04;;;;;;;6.63;5.10;;;22.70;1.00;;;;;;5017181;28;20463;-92
2023/06/08 16:36:58;;;;;;;5.63;5.13;;;22.70;1.00;;;;;;4999472;28;20470;-91
2023/06/08 16:40:16;;;;;;;5.70;5.13;;;23.00;1.00;;;;;;4999010;28;20447;-92
2023/06/08 16:46:16;;;;;;;9.33;5.20;;;23.20;1.00;;;;;;5012801;28;20485;-91
2023/06/08 16:48:42;;;;;;;7.03;4.77;;;23.00;1.00;;;;;;4999211;28;20441;-90
2023/06/08 16:51:16;;;;;;;11.37;4.83;;;22.80;1.00;;;;;;4997662;28;20523;-88
2023/06/08 16:54:05;;;;;;;8.20;5.43;;;22.60;1.00;;;;;;4985405;28;20186;-88
2023/06/08 16:56:58;;;;;;;7.37;4.93;;;22.40;1.00;;;;;;4994083;28;20667;-87
2023/06/08 16:59:46;;;;;;;7.10;4.83;;;22.20;1.00;;;;;;4995024;28;20502;-84
2023/06/08 17:02:28;;;;;;;5.57;4.60;;;22.10;1.00;;;;;;4994461;28;20495;-87
2023/06/08 17:05:16;;;;;;;9.30;5.50;;;22.00;1.00;;;;;;4991632;28;21013;-88
2023/06/08 17:07:42;;;;;;;6.67;5.50;;;22.00;1.00;;;;;;4992490;28;20465;-88
2023/06/08 17:13:37;;;;;;;10.20;5.60;;;22.30;1.00;;;;;;5010870;28;20192;-95
2023/06/08 17:16:03;;;;;;;8.70;5.90;;;22.50;1.00;;;;;;4999329;28;20979;-83
2023/06/08 17:18:40;;;;;;;8.43;5.70;;;22.70;1.00;;;;;;4996122;28;20424;-83
2023/06/08 17:24:31;;;;;;;9.13;5.60;;;23.50;1.00;;;;;;5002032;28;20801;-84
2023/06/08 17:33:55;;;;;;;7.87;5.80;;;24.20;1.00;;;;;;5014993;28;20406;-84
2023/06/08 17:36:20;;;;;;;11.07;5.73;;;24.20;1.00;;;;;;4984286;28;20461;-85
2023/06/08 17:38:58;;;;;;;7.83;5.23;;;24.30;1.00;;;;;;4987065;28;20431;-88
2023/06/08 17:48:22;;;;;;;9.70;4.60;;;24.10;1.00;;;;;;5010670;28;20437;-90
2023/06/08 17:51:22;;;;;;;7.30;4.70;;;24.00;1.00;;;;;;4997704;28;20937;-88
2023/06/08 17:57:52;;;;;;;5.93;5.10;;;23.80;1.00;;;;;;5014441;28;20521;-87
2023/06/08 18:07:02;;;;;;;8.57;5.50;;;23.50;1.00;;;;;;5015704;28;20378;-96
2023/06/08 18:12:49;;;;;;;8.53;5.37;;;23.20;1.00;;;;;;5017327;28;20380;-96
2023/06/08 18:18:37;;;;;;;10.40;5.40;;;23.10;1.00;;;;;;5022890;28;20170;-96
2023/06/08 18:27:48;;;;;;;10.87;5.53;;;22.90;1.00;;;;;;5016699;28;20801;-96
2023/06/08 18:30:52;;;;;;;8.90;5.80;;;22.90;1.00;;;;;;4998519;28;20445;-91
2023/06/08 18:36:39;;;;;;;12.00;5.60;;;22.60;1.00;;;;;;5014754;28;21039;-87
2023/06/08 18:39:46;;;;;;;8.23;5.70;;;22.50;1.00;;;;;;4996298;28;20520;-88
2023/06/08 18:42:40;;;;;;;7.07;5.50;;;22.40;1.00;;;;;;4994106;28;20583;-87
2023/06/08 18:48:28;;;;;;;11.97;6.57;;;22.00;1.00;;;;;;5003950;28;20846;-92
2023/06/08 18:51:05;;;;;;;8.67;6.60;;;21.90;1.00;;;;;;4995490;28;20936;-93
2023/06/08 18:56:53;;;;;;;10.00;7.40;;;21.60;1.00;;;;;;5019050;28;20449;-96
2023/06/08 18:59:34;;;;;;;8.87;6.43;;;21.40;1.00;;;;;;4998374;28;20428;-96
2023/06/08 19:02:10;;;;;;;8.63;6.67;;;21.20;1.00;;;;;;4996378;28;22091;-90
2023/06/08 19:04:40;;;;;;;15.43;6.77;;;21.10;1.00;;;;;;4992064;28;20414;-89
2023/06/08 19:07:06;;;;;;;13.40;6.60;;;20.90;1.00;;;;;;4996413;28;20449;-89
2023/06/08 19:09:40;;;;;;;17.63;7.40;;;20.80;1.00;;;;;;4995321;28;20401;-89
2023/06/08 19:12:08;;;;;;;18.70;7.33;;;20.70;1.00;;;;;;4994882;28;20394;-89
2023/06/08 19:14:46;;;;;;;14.43;7.70;;;20.60;1.00;;;;;;4996582;28;20461;-88
2023/06/08 19:17:22;;;;;;;8.93;7.13;;;20.50;1.00;;;;;;4996972;28;20444;-88
2023/06/08 19:19:58;;;;;;;18.50;7.50;;;20.30;1.00;;;;;;4983771;28;21075;-87
2023/06/08 19:22:24;;;;;;;18.23;6.53;;;20.20;1.00;;;;;;4992695;28;20601;-86
2023/06/08 19:24:50;;;;;;;13.90;7.80;;;20.10;1.00;;;;;;4994036;28;20492;-87
2023/06/08 19:27:17;;;;;;;14.67;8.20;;;20.00;1.00;;;;;;4990148;28;20432;-91
2023/06/08 19:29:43;;;;;;;10.27;7.50;;;19.90;1.00;;;;;;4992787;28;20517;-92
2023/06/08 19:32:08;;;;;;;22.87;8.23;;;19.80;1.00;;;;;;4989909;28;20567;-88
2023/06/08 19:34:35;;;;;;;10.50;7.53;;;19.70;1.00;;;;;;4996342;28;20556;-86
2023/06/08 19:37:05;;;;;;;11.80;7.27;;;19.60;1.00;;;;;;5011390;28;20194;-85
2023/06/08 19:39:30;;;;;;;14.20;7.20;;;19.50;1.00;;;;;;4989982;28;20438;-90
2023/06/08 19:41:57;;;;;;;15.97;8.00;;;19.50;1.00;;;;;;4995573;28;20431;-90
2023/06/08 19:44:24;;;;;;;15.00;8.60;;;19.40;1.00;;;;;;4992435;28;20245;-89
2023/06/08 19:50:27;;;;;;;19.13;8.20;;;19.30;1.00;;;;;;4995910;28;20387;-90
2023/06/08 19:59:41;;;;;;;18.07;7.93;;;19.20;1.00;;;;;;5017553;28;20381;-91
2023/06/08 20:08:51;;;;;;;15.30;7.60;;;19.00;1.00;;;;;;4999546;28;20419;-80
2023/06/08 20:11:58;;;;;;;10.30;7.50;;;18.90;1.00;;;;;;5014504;28;20429;-79
2023/06/08 20:15:04;;;;;;;9.07;8.13;;;18.90;1.00;;;;;;5016107;28;20181;-81